Time;durP1;ratioP1;P1;durP2;ratioP2;P2;SDS_P1;SDS_P2;PMS_P1;PMS_P2;Temp;Humidity;BMP_temperature;BMP_pressure;BME280_temperature;BME280_humidity;BME280_pressure;Samples;Min_cycle;Max_cycle;Signal;HPM_P1;HPM_P2
2023/05/04 00:00:32;;;;;;;0.90;0.90;;;12.90;99.90;;;;;;5038941;28;20311;-63
2023/05/04 00:02:59;;;;;;;0.90;0.90;;;12.90;99.90;;;;;;5049322;28;20698;-64
2023/05/04 00:05:27;;;;;;;0.90;0.90;;;12.90;99.90;;;;;;5051364;28;20203;-64
2023/05/04 00:07:54;;;;;;;1.10;1.00;;;12.90;99.90;;;;;;5051573;28;20204;-64
2023/05/04 00:10:20;;;;;;;0.80;0.80;;;12.90;99.90;;;;;;5050224;28;20230;-65
2023/05/04 00:12:47;;;;;;;0.90;0.90;;;12.90;99.90;;;;;;5051312;28;20280;-65
2023/05/04 00:15:14;;;;;;;1.00;1.00;;;12.80;99.90;;;;;;5031704;28;20232;-63
2023/05/04 00:17:41;;;;;;;1.10;1.10;;;12.90;99.90;;;;;;5031487;28;20266;-63
2023/05/04 00:20:08;;;;;;;1.10;1.10;;;13.00;99.90;;;;;;5027340;28;20255;-62
2023/05/04 00:22:37;;;;;;;1.00;1.00;;;13.10;99.90;;;;;;5031503;28;20219;-62
2023/05/04 00:25:04;;;;;;;1.00;1.00;;;13.30;99.90;;;;;;5032090;28;20309;-61
2023/05/04 00:27:31;;;;;;;0.90;0.90;;;13.30;99.90;;;;;;5036762;28;20214;-63
2023/05/04 00:29:57;;;;;;;0.90;0.90;;;13.40;99.90;;;;;;5040734;28;20755;-63
2023/05/04 00:32:25;;;;;;;1.02;1.02;;;13.50;99.90;;;;;;5052696;28;20199;-63
2023/05/04 00:34:51;;;;;;;0.90;0.90;;;13.60;99.90;;;;;;5052270;28;20223;-63
2023/05/04 00:37:18;;;;;;;0.82;0.82;;;13.70;99.90;;;;;;5051909;28;20243;-63
2023/05/04 00:39:46;;;;;;;0.90;0.90;;;13.70;99.90;;;;;;5050555;28;20248;-64
2023/05/04 00:42:13;;;;;;;1.00;1.00;;;13.80;99.90;;;;;;5051329;28;20210;-63
2023/05/04 00:44:40;;;;;;;1.15;1.15;;;13.90;99.90;;;;;;5051540;28;20567;-63
2023/05/04 00:47:08;;;;;;;1.10;1.00;;;13.80;99.90;;;;;;5049795;28;20210;-63
2023/05/04 00:49:35;;;;;;;0.80;0.80;;;13.80;99.90;;;;;;5049567;28;20269;-63
2023/05/04 00:52:04;;;;;;;1.10;1.10;;;13.90;99.90;;;;;;5050829;28;20761;-64
2023/05/04 00:54:31;;;;;;;1.10;1.10;;;13.80;99.90;;;;;;5050449;28;20220;-63
2023/05/04 00:57:00;;;;;;;0.73;0.73;;;13.80;99.90;;;;;;5050791;28;20204;-63
2023/05/04 00:59:27;;;;;;;1.00;1.00;;;13.80;99.90;;;;;;5049840;28;20224;-64
2023/05/04 01:01:54;;;;;;;1.00;1.00;;;13.80;99.90;;;;;;5044488;28;20215;-64
2023/05/04 01:04:21;;;;;;;1.10;1.10;;;13.80;99.90;;;;;;5041980;28;20667;-64
2023/05/04 01:06:52;;;;;;;1.00;1.00;;;13.80;99.90;;;;;;5050859;28;20208;-64
2023/05/04 01:09:26;;;;;;;1.10;1.10;;;13.80;99.90;;;;;;5050861;28;20188;-64
2023/05/04 01:12:03;;;;;;;1.02;1.02;;;13.80;99.90;;;;;;5051171;28;20698;-64
2023/05/04 01:14:33;;;;;;;1.17;1.17;;;13.80;99.90;;;;;;5050959;28;20231;-64
2023/05/04 01:17:03;;;;;;;1.00;1.00;;;13.80;99.90;;;;;;5052088;28;20216;-63
2023/05/04 01:19:29;;;;;;;1.10;1.10;;;13.90;99.90;;;;;;5051025;28;20662;-63
2023/05/04 01:21:58;;;;;;;1.05;1.05;;;14.00;99.90;;;;;;5051448;28;20200;-63
2023/05/04 01:24:25;;;;;;;0.93;0.93;;;14.10;99.90;;;;;;5050967;28;20212;-63
2023/05/04 01:26:56;;;;;;;1.05;1.05;;;14.10;99.90;;;;;;5051088;28;20214;-64
2023/05/04 01:29:31;;;;;;;1.10;1.10;;;14.10;99.90;;;;;;5049292;28;20218;-64
2023/05/04 01:31:59;;;;;;;1.05;1.05;;;14.10;99.90;;;;;;5050078;28;20291;-65
2023/05/04 01:34:26;;;;;;;1.00;1.00;;;14.20;99.90;;;;;;5050078;28;20204;-64
2023/05/04 01:36:54;;;;;;;0.95;0.95;;;14.20;99.90;;;;;;5050442;28;20208;-64
2023/05/04 01:39:22;;;;;;;1.10;1.10;;;14.20;99.90;;;;;;5049281;28;20311;-64
2023/05/04 01:41:49;;;;;;;1.10;1.10;;;14.20;99.90;;;;;;5050108;28;20684;-64
2023/05/04 01:44:16;;;;;;;1.27;1.17;;;14.20;99.90;;;;;;5049639;28;20744;-64
2023/05/04 01:46:43;;;;;;;1.00;1.00;;;14.20;99.90;;;;;;5049892;28;20204;-64
2023/05/04 01:49:09;;;;;;;1.20;1.20;;;14.20;99.90;;;;;;5049123;28;20212;-63
2023/05/04 01:51:36;;;;;;;0.90;0.90;;;14.20;99.90;;;;;;5049538;28;20208;-63
2023/05/04 01:54:03;;;;;;;1.00;1.00;;;14.20;99.90;;;;;;5045487;28;20208;-63
2023/05/04 01:56:31;;;;;;;1.00;1.00;;;14.10;99.90;;;;;;5050727;28;20594;-63
2023/05/04 01:58:58;;;;;;;1.10;1.10;;;14.20;99.90;;;;;;5057091;28;20206;-63
2023/05/04 02:01:25;;;;;;;1.23;1.20;;;14.10;99.90;;;;;;5054774;28;20219;-63
2023/05/04 02:03:52;;;;;;;1.10;1.10;;;14.00;99.90;;;;;;5057239;28;20218;-64
2023/05/04 02:06:18;;;;;;;1.10;1.10;;;14.10;99.90;;;;;;5057333;28;20294;-64
2023/05/04 02:08:46;;;;;;;1.23;1.23;;;14.00;99.90;;;;;;5057484;28;20203;-64
2023/05/04 02:11:13;;;;;;;1.13;1.13;;;14.00;99.90;;;;;;5055055;28;20239;-64
2023/05/04 02:13:41;;;;;;;1.20;1.20;;;14.00;99.90;;;;;;5056236;28;20215;-64
2023/05/04 02:16:08;;;;;;;1.20;1.20;;;14.10;99.90;;;;;;5055872;28;20763;-64
2023/05/04 02:18:35;;;;;;;1.20;1.20;;;14.20;99.90;;;;;;5056036;28;20207;-64
2023/05/04 02:21:02;;;;;;;1.10;1.10;;;14.20;99.90;;;;;;5055600;28;20223;-63
2023/05/04 02:23:28;;;;;;;1.10;1.10;;;14.20;99.90;;;;;;5042189;28;20300;-64
2023/05/04 02:25:55;;;;;;;1.20;1.20;;;14.20;99.90;;;;;;5045001;28;20226;-64
2023/05/04 02:28:22;;;;;;;1.25;1.25;;;14.20;99.90;;;;;;5037685;28;20207;-63
2023/05/04 02:30:50;;;;;;;1.35;1.25;;;14.30;99.90;;;;;;5047029;28;20310;-63
2023/05/04 02:33:17;;;;;;;1.20;1.20;;;14.30;99.90;;;;;;5056305;28;20215;-64
2023/05/04 02:35:44;;;;;;;1.02;1.02;;;14.30;99.90;;;;;;5049319;28;20255;-64
2023/05/04 02:38:11;;;;;;;1.45;1.38;;;14.30;99.90;;;;;;5047382;28;20200;-62
2023/05/04 02:40:38;;;;;;;1.20;1.13;;;14.30;99.90;;;;;;5049589;28;20298;-63
2023/05/04 02:43:04;;;;;;;1.10;1.10;;;14.30;99.90;;;;;;5048973;28;20208;-63
2023/05/04 02:45:31;;;;;;;1.02;1.02;;;14.30;99.90;;;;;;5055522;28;20282;-63
2023/05/04 02:47:59;;;;;;;1.20;1.20;;;14.20;99.90;;;;;;5055875;28;20208;-64
2023/05/04 02:50:26;;;;;;;1.20;1.20;;;14.30;99.90;;;;;;5055313;28;20226;-64
2023/05/04 02:52:53;;;;;;;1.50;1.40;;;14.20;99.90;;;;;;5056267;28;20204;-64
2023/05/04 02:55:20;;;;;;;1.05;1.05;;;14.20;99.90;;;;;;5056430;28;20223;-64
2023/05/04 02:57:47;;;;;;;1.13;1.13;;;14.20;99.90;;;;;;5056773;28;20577;-63
2023/05/04 03:00:14;;;;;;;1.10;1.10;;;14.30;99.90;;;;;;5056210;28;20232;-67
2023/05/04 03:02:41;;;;;;;1.10;1.10;;;14.20;99.90;;;;;;5056277;28;20636;-63
2023/05/04 03:05:10;;;;;;;1.42;1.10;;;14.20;99.90;;;;;;5056201;28;20287;-62
2023/05/04 03:07:37;;;;;;;1.00;1.00;;;14.20;99.90;;;;;;5056427;28;20261;-64
2023/05/04 03:10:04;;;;;;;1.20;1.20;;;14.10;99.90;;;;;;5047784;28;20239;-63
2023/05/04 03:12:31;;;;;;;1.00;1.00;;;14.10;99.90;;;;;;5053739;28;20204;-63
2023/05/04 03:14:57;;;;;;;1.38;1.38;;;14.10;99.90;;;;;;5053154;28;20674;-62
2023/05/04 03:17:24;;;;;;;1.20;1.20;;;14.10;99.90;;;;;;5053972;28;20208;-63
2023/05/04 03:19:51;;;;;;;1.27;1.27;;;14.00;99.90;;;;;;5052955;28;20224;-63
2023/05/04 03:22:19;;;;;;;1.10;1.10;;;14.00;99.90;;;;;;5053177;28;20227;-63
2023/05/04 03:24:46;;;;;;;1.20;1.20;;;14.00;99.90;;;;;;5052887;28;20308;-63
2023/05/04 03:27:13;;;;;;;1.30;1.20;;;13.90;99.90;;;;;;5052908;28;20698;-63
2023/05/04 03:29:40;;;;;;;1.17;1.08;;;13.80;99.90;;;;;;5052680;28;20220;-63
2023/05/04 03:32:07;;;;;;;1.30;1.20;;;13.70;99.90;;;;;;5052765;28;20218;-61
2023/05/04 03:34:34;;;;;;;1.10;1.10;;;13.60;99.90;;;;;;5052400;28;20701;-63
2023/05/04 03:37:01;;;;;;;1.10;1.10;;;13.50;99.90;;;;;;5052834;28;20597;-62
2023/05/04 03:39:29;;;;;;;1.25;1.25;;;13.50;99.90;;;;;;5051857;28;20228;-63
2023/05/04 03:41:56;;;;;;;1.10;1.10;;;13.40;99.90;;;;;;5052370;28;20208;-63
2023/05/04 03:44:23;;;;;;;1.10;1.10;;;13.20;99.90;;;;;;5052694;28;20210;-63
2023/05/04 03:46:49;;;;;;;1.20;1.20;;;13.20;99.90;;;;;;5053203;28;20286;-65
2023/05/04 03:49:16;;;;;;;1.15;1.10;;;13.20;99.90;;;;;;5053780;28;20207;-64
2023/05/04 03:51:43;;;;;;;1.00;1.00;;;13.10;99.90;;;;;;5053585;28;20218;-63
2023/05/04 03:54:10;;;;;;;1.00;1.00;;;13.10;99.90;;;;;;5052527;28;20582;-65
2023/05/04 03:56:38;;;;;;;1.10;1.10;;;13.00;99.90;;;;;;5052746;28;20315;-65
2023/05/04 03:59:05;;;;;;;1.48;1.38;;;13.00;99.90;;;;;;5052546;28;20734;-64
2023/05/04 04:01:32;;;;;;;1.00;1.00;;;13.10;99.90;;;;;;5053366;28;20219;-64
2023/05/04 04:03:58;;;;;;;1.20;1.10;;;13.10;99.90;;;;;;5053172;28;20207;-64
2023/05/04 04:06:25;;;;;;;1.10;1.10;;;13.10;99.90;;;;;;5054349;28;20210;-62
2023/05/04 04:08:52;;;;;;;1.08;1.08;;;13.10;99.90;;;;;;5052407;28;20671;-62
2023/05/04 04:11:19;;;;;;;0.93;0.93;;;13.00;99.90;;;;;;5048793;28;20327;-62
2023/05/04 04:13:47;;;;;;;1.00;1.00;;;12.90;99.90;;;;;;5036876;28;20218;-63
2023/05/04 04:16:14;;;;;;;0.93;0.93;;;12.80;99.90;;;;;;5051471;28;20235;-63
2023/05/04 04:18:41;;;;;;;1.00;1.00;;;12.80;99.90;;;;;;5038809;28;20374;-64
2023/05/04 04:21:09;;;;;;;0.82;0.82;;;12.80;99.90;;;;;;5031439;28;20227;-64
2023/05/04 04:23:36;;;;;;;1.25;1.25;;;12.70;99.90;;;;;;5031711;28;20292;-64
2023/05/04 04:26:04;;;;;;;0.90;0.90;;;12.70;99.90;;;;;;5031947;28;20204;-61
2023/05/04 04:28:31;;;;;;;0.90;0.90;;;12.70;99.90;;;;;;5031432;28;20774;-64
2023/05/04 04:31:00;;;;;;;1.00;1.00;;;12.70;99.90;;;;;;5031850;28;20310;-65
2023/05/04 04:33:27;;;;;;;1.10;1.10;;;12.60;99.90;;;;;;5043673;28;20589;-64
2023/05/04 04:35:54;;;;;;;1.23;1.23;;;12.60;99.90;;;;;;5033252;28;20227;-64
2023/05/04 04:38:21;;;;;;;1.00;1.00;;;12.60;99.90;;;;;;5030383;28;20204;-61
2023/05/04 04:40:47;;;;;;;1.10;1.10;;;12.60;99.90;;;;;;5037904;28;20642;-63
2023/05/04 04:43:14;;;;;;;1.10;1.10;;;12.50;99.90;;;;;;5011379;28;20209;-62
2023/05/04 04:45:41;;;;;;;1.23;1.23;;;12.50;99.90;;;;;;5011352;28;20197;-62
2023/05/04 04:48:10;;;;;;;1.00;1.00;;;12.50;99.90;;;;;;5011054;28;20267;-62
2023/05/04 04:50:38;;;;;;;1.00;1.00;;;12.40;99.90;;;;;;5036066;28;20244;-61
2023/05/04 04:53:05;;;;;;;1.27;1.20;;;12.50;99.90;;;;;;5049025;28;20200;-62
2023/05/04 04:55:33;;;;;;;1.10;1.10;;;12.50;99.90;;;;;;5051497;28;20214;-64
2023/05/04 04:58:00;;;;;;;3.08;1.35;;;12.50;99.90;;;;;;5051797;28;20582;-61
2023/05/04 05:00:27;;;;;;;1.10;1.10;;;12.50;99.90;;;;;;5023384;28;20224;-64
2023/05/04 05:02:54;;;;;;;1.10;1.10;;;12.50;99.90;;;;;;5031746;28;20204;-63
2023/05/04 05:05:22;;;;;;;1.08;1.08;;;12.40;99.90;;;;;;5031171;28;20769;-64
2023/05/04 05:07:49;;;;;;;1.00;1.00;;;12.50;99.90;;;;;;5030791;28;20205;-63
2023/05/04 05:10:16;;;;;;;1.00;1.00;;;12.50;99.90;;;;;;5027286;28;20228;-62
2023/05/04 05:12:43;;;;;;;1.10;1.10;;;12.60;99.90;;;;;;5031014;28;20204;-63
2023/05/04 05:15:10;;;;;;;1.10;1.10;;;12.60;99.90;;;;;;5030702;28;20603;-63
2023/05/04 05:17:38;;;;;;;1.10;1.10;;;12.70;99.90;;;;;;5030224;28;20277;-64
2023/05/04 05:20:08;;;;;;;1.15;1.15;;;12.80;99.90;;;;;;5024202;28;20648;-62
2023/05/04 05:22:37;;;;;;;1.00;1.00;;;12.90;99.90;;;;;;5021394;28;20615;-63
2023/05/04 05:25:04;;;;;;;1.08;1.08;;;13.00;99.90;;;;;;5029183;28;20211;-62
2023/05/04 05:27:33;;;;;;;1.20;1.20;;;13.10;99.90;;;;;;5038851;28;20210;-62
2023/05/04 05:29:59;;;;;;;1.38;1.20;;;13.20;99.90;;;;;;5029439;28;20290;-62
2023/05/04 05:32:26;;;;;;;1.23;1.23;;;13.30;99.90;;;;;;5029583;28;20952;-62
2023/05/04 05:34:53;;;;;;;1.25;1.25;;;13.50;99.90;;;;;;5028978;28;20215;-62
2023/05/04 05:37:20;;;;;;;1.58;1.48;;;13.60;99.90;;;;;;5029605;28;20294;-63
2023/05/04 05:39:48;;;;;;;1.20;1.20;;;13.80;99.90;;;;;;5030480;28;20220;-62
2023/05/04 05:42:15;;;;;;;1.10;1.10;;;13.90;99.90;;;;;;5030427;28;20666;-62
2023/05/04 05:44:42;;;;;;;1.10;1.10;;;14.00;99.90;;;;;;5029892;28;20204;-63
2023/05/04 05:47:09;;;;;;;1.00;1.00;;;14.20;99.90;;;;;;5030020;28;20204;-63
2023/05/04 05:49:36;;;;;;;1.35;1.35;;;14.40;99.90;;;;;;5029875;28;20232;-63
2023/05/04 05:52:02;;;;;;;1.30;1.20;;;14.60;99.90;;;;;;5030014;28;20625;-63
2023/05/04 05:54:30;;;;;;;1.10;1.10;;;14.70;99.90;;;;;;5030173;28;20226;-63
2023/05/04 05:56:58;;;;;;;1.20;1.20;;;14.80;99.90;;;;;;5030583;28;20224;-63
2023/05/04 05:59:25;;;;;;;1.10;1.10;;;15.00;99.90;;;;;;5032532;28;20208;-62
2023/05/04 06:01:52;;;;;;;1.10;1.10;;;15.20;99.90;;;;;;5036559;28;20252;-62
2023/05/04 06:04:19;;;;;;;1.73;1.15;;;15.30;99.90;;;;;;5040918;28;20202;-63
2023/05/04 06:06:46;;;;;;;1.10;1.10;;;15.40;99.90;;;;;;5049395;28;20666;-62
2023/05/04 06:09:13;;;;;;;1.30;1.30;;;15.60;99.90;;;;;;5047657;28;20607;-62
2023/05/04 06:11:39;;;;;;;1.42;1.40;;;15.70;99.90;;;;;;5050383;28;20211;-61
2023/05/04 06:14:09;;;;;;;2.47;1.52;;;15.70;99.90;;;;;;5050372;28;20713;-63
2023/05/04 06:16:35;;;;;;;1.52;1.45;;;15.90;99.90;;;;;;5050995;28;20231;-62
2023/05/04 06:19:02;;;;;;;1.85;1.75;;;16.00;99.90;;;;;;5051596;28;20215;-62
2023/05/04 06:21:29;;;;;;;1.98;1.88;;;16.10;99.90;;;;;;5054119;28;20323;-62
2023/05/04 06:23:56;;;;;;;1.70;1.60;;;16.10;99.90;;;;;;5050673;28;20208;-62
2023/05/04 06:26:23;;;;;;;2.20;2.10;;;16.20;99.90;;;;;;5049638;28;20582;-63
2023/05/04 06:28:50;;;;;;;1.67;1.58;;;16.40;99.90;;;;;;5050235;28;20200;-63
2023/05/04 06:31:18;;;;;;;1.30;1.30;;;16.40;99.90;;;;;;5048657;28;20725;-63
2023/05/04 06:33:45;;;;;;;1.58;1.40;;;16.30;99.90;;;;;;5049672;28;20598;-62
2023/05/04 06:36:12;;;;;;;1.30;1.30;;;16.40;99.90;;;;;;5049742;28;20222;-62
2023/05/04 06:38:39;;;;;;;1.17;1.17;;;16.50;99.90;;;;;;5049850;28;20683;-62
2023/05/04 06:41:06;;;;;;;1.30;1.20;;;16.50;99.90;;;;;;5048662;28;20235;-63
2023/05/04 06:43:33;;;;;;;2.00;1.90;;;16.70;99.90;;;;;;5049587;28;20212;-62
2023/05/04 06:46:01;;;;;;;2.10;2.00;;;16.90;99.90;;;;;;5053639;28;20568;-64
2023/05/04 06:48:30;;;;;;;1.95;1.85;;;16.60;99.90;;;;;;5053278;28;20628;-63
2023/05/04 06:50:57;;;;;;;2.72;1.98;;;16.50;99.90;;;;;;5051959;28;20228;-64
2023/05/04 06:53:24;;;;;;;1.70;1.60;;;16.50;99.90;;;;;;5051969;28;20208;-64
2023/05/04 06:55:51;;;;;;;2.17;2.08;;;16.40;99.90;;;;;;5054216;28;20208;-63
2023/05/04 06:58:18;;;;;;;2.05;1.95;;;16.40;99.90;;;;;;5054512;28;20682;-64
2023/05/04 07:00:45;;;;;;;2.40;2.00;;;16.30;99.90;;;;;;5052901;28;20228;-64
2023/05/04 07:03:12;;;;;;;2.00;1.90;;;16.10;99.90;;;;;;5053094;28;20278;-64
2023/05/04 07:05:43;;;;;;;2.95;1.92;;;16.20;99.90;;;;;;5052867;28;20578;-64
2023/05/04 07:08:10;;;;;;;2.00;1.90;;;16.20;99.90;;;;;;5052878;28;20254;-64
2023/05/04 07:10:37;;;;;;;2.10;2.00;;;16.30;99.90;;;;;;5051668;28;20239;-62
2023/05/04 07:13:04;;;;;;;2.60;2.33;;;16.30;99.90;;;;;;5052727;28;20208;-63
2023/05/04 07:15:32;;;;;;;2.10;2.00;;;16.30;99.90;;;;;;5054352;28;20575;-62
2023/05/04 07:18:00;;;;;;;2.10;2.00;;;16.20;99.90;;;;;;5053135;28;20734;-63
2023/05/04 07:20:27;;;;;;;2.00;1.90;;;16.20;99.90;;;;;;5051962;28;20228;-62
2023/05/04 07:22:56;;;;;;;2.05;1.95;;;16.00;99.90;;;;;;5052921;28;20236;-64
2023/05/04 07:25:23;;;;;;;3.63;2.05;;;16.10;99.90;;;;;;5053500;28;20211;-64
2023/05/04 07:27:50;;;;;;;2.03;1.85;;;16.20;99.90;;;;;;5053736;28;20208;-64
2023/05/04 07:30:17;;;;;;;2.13;2.03;;;16.20;99.90;;;;;;5052196;28;20593;-65
2023/05/04 07:32:44;;;;;;;2.47;2.28;;;16.20;99.90;;;;;;5053666;28;20206;-64
2023/05/04 07:35:11;;;;;;;2.00;1.90;;;16.20;99.90;;;;;;5053930;28;20257;-64
2023/05/04 07:37:37;;;;;;;3.67;2.10;;;16.30;99.90;;;;;;5053657;28;20720;-65
2023/05/04 07:40:07;;;;;;;2.00;1.88;;;16.30;99.90;;;;;;5053306;28;20231;-64
2023/05/04 07:42:34;;;;;;;2.15;2.05;;;16.30;99.90;;;;;;5053248;28;20200;-64
2023/05/04 07:45:01;;;;;;;2.10;2.00;;;16.30;99.90;;;;;;5052381;28;20208;-62
2023/05/04 07:47:28;;;;;;;2.00;1.90;;;16.30;99.90;;;;;;5052606;28;20206;-65
2023/05/04 07:49:54;;;;;;;2.10;1.95;;;16.40;99.90;;;;;;5052142;28;20594;-64
2023/05/04 07:52:21;;;;;;;2.10;2.00;;;16.50;99.90;;;;;;5052493;28;20224;-63
2023/05/04 07:55:11;;;;;;;2.25;2.15;;;16.20;99.90;;;;;;5052423;28;20210;-62
2023/05/04 07:57:40;;;;;;;3.10;2.40;;;16.30;99.90;;;;;;5056919;28;20253;-63
2023/05/04 08:00:10;;;;;;;2.08;1.98;;;16.60;99.90;;;;;;5052239;28;20223;-63
2023/05/04 08:02:37;;;;;;;2.30;2.10;;;16.80;99.90;;;;;;5052154;28;20670;-63
2023/05/04 08:05:04;;;;;;;2.03;1.92;;;16.90;99.90;;;;;;5052937;28;20204;-64
2023/05/04 08:07:31;;;;;;;2.13;2.03;;;16.90;99.90;;;;;;5054751;28;20552;-63
2023/05/04 08:09:58;;;;;;;2.63;2.42;;;16.80;99.90;;;;;;5051520;28;20251;-63
2023/05/04 08:12:25;;;;;;;2.75;2.10;;;17.00;99.90;;;;;;5052561;28;20706;-62
2023/05/04 08:14:54;;;;;;;2.38;2.17;;;17.10;99.90;;;;;;5053057;28;20208;-63
2023/05/04 08:17:20;;;;;;;2.33;2.10;;;17.30;99.90;;;;;;5052815;28;20262;-63
2023/05/04 08:19:47;;;;;;;2.58;1.80;;;17.30;99.90;;;;;;5052448;28;20230;-63
2023/05/04 08:22:14;;;;;;;2.22;2.03;;;17.40;99.90;;;;;;5051756;28;20211;-63
2023/05/04 08:24:41;;;;;;;2.20;2.10;;;17.50;99.90;;;;;;5051665;28;20204;-63
2023/05/04 08:27:07;;;;;;;2.15;2.05;;;17.70;99.90;;;;;;5051467;28;20199;-62
2023/05/04 08:29:35;;;;;;;1.80;1.70;;;17.80;99.90;;;;;;5050406;28;20309;-63
2023/05/04 08:32:04;;;;;;;2.15;1.90;;;17.90;99.90;;;;;;5051533;28;20207;-64
2023/05/04 08:34:31;;;;;;;2.05;1.90;;;18.10;99.90;;;;;;5050962;28;20208;-64
2023/05/04 08:36:58;;;;;;;2.13;1.98;;;18.30;99.90;;;;;;5050943;28;20234;-64
2023/05/04 08:39:25;;;;;;;1.98;1.88;;;18.30;99.90;;;;;;5050237;28;20208;-63
2023/05/04 08:41:52;;;;;;;2.08;1.98;;;18.40;99.90;;;;;;5050844;28;20208;-64
2023/05/04 08:44:19;;;;;;;4.03;2.03;;;18.40;99.90;;;;;;5050889;28;20208;-64
2023/05/04 08:46:52;;;;;;;2.10;2.00;;;18.50;99.90;;;;;;5050722;28;20200;-64
2023/05/04 08:49:20;;;;;;;1.65;1.60;;;18.50;99.90;;;;;;5049336;28;20219;-62
2023/05/04 08:51:49;;;;;;;1.80;1.70;;;18.50;99.90;;;;;;5054810;28;20204;-63
2023/05/04 08:54:16;;;;;;;1.90;1.80;;;18.60;99.90;;;;;;5051240;28;20211;-63
2023/05/04 08:56:45;;;;;;;1.70;1.60;;;18.70;99.90;;;;;;5050558;28;20200;-64
2023/05/04 08:59:18;;;;;;;1.90;1.80;;;18.80;99.90;;;;;;5050755;28;20632;-64
2023/05/04 09:01:47;;;;;;;2.00;1.90;;;18.90;99.90;;;;;;5050864;28;20212;-63
2023/05/04 09:04:14;;;;;;;1.80;1.70;;;19.10;99.90;;;;;;5050765;28;20211;-63
2023/05/04 09:06:42;;;;;;;2.08;1.65;;;19.20;99.90;;;;;;5049671;28;20211;-64
2023/05/04 09:09:10;;;;;;;1.77;1.67;;;19.40;99.90;;;;;;5049409;28;20207;-64
2023/05/04 09:11:38;;;;;;;1.70;1.60;;;19.40;99.90;;;;;;5050178;28;20208;-64
2023/05/04 09:14:05;;;;;;;1.90;1.80;;;19.70;99.90;;;;;;5050133;28;20302;-63
2023/05/04 09:16:36;;;;;;;1.60;1.50;;;19.90;99.90;;;;;;5050580;28;20215;-64
2023/05/04 09:19:03;;;;;;;1.70;1.60;;;19.70;99.90;;;;;;5050164;28;20219;-63
2023/05/04 09:21:30;;;;;;;1.40;1.40;;;19.80;99.90;;;;;;5049290;28;20232;-64
2023/05/04 09:23:59;;;;;;;1.50;1.50;;;19.90;99.90;;;;;;5051079;28;20686;-63
2023/05/04 09:26:29;;;;;;;1.90;1.80;;;19.90;99.90;;;;;;5050196;28;20204;-64
2023/05/04 09:28:56;;;;;;;1.27;1.27;;;19.90;99.90;;;;;;5049856;28;20634;-63
2023/05/04 09:31:24;;;;;;;1.80;1.70;;;20.00;99.90;;;;;;5049603;28;20266;-64
2023/05/04 09:33:50;;;;;;;1.80;1.70;;;20.20;99.90;;;;;;5049988;28;20203;-64
2023/05/04 09:36:19;;;;;;;1.98;1.88;;;20.30;99.90;;;;;;5047115;28;20209;-64
2023/05/04 09:38:46;;;;;;;2.17;1.98;;;20.50;99.90;;;;;;5030101;28;20236;-62
2023/05/04 09:41:15;;;;;;;1.55;1.45;;;20.60;99.90;;;;;;5029640;28;20401;-64
2023/05/04 09:43:43;;;;;;;1.40;1.40;;;20.60;99.90;;;;;;5030906;28;20578;-64
2023/05/04 09:46:16;;;;;;;1.67;1.58;;;20.70;99.90;;;;;;5031243;28;20239;-64
2023/05/04 09:48:51;;;;;;;1.70;1.60;;;20.80;99.90;;;;;;5030592;28;20204;-64
2023/05/04 09:51:21;;;;;;;1.58;1.48;;;20.70;99.90;;;;;;5032593;28;20228;-65
2023/05/04 09:53:49;;;;;;;1.60;1.60;;;20.80;99.90;;;;;;5033591;28;20622;-64
2023/05/04 09:56:27;;;;;;;1.60;1.60;;;20.90;99.90;;;;;;5031207;28;20219;-64
2023/05/04 09:58:57;;;;;;;1.45;1.40;;;20.90;99.90;;;;;;5028773;28;20216;-64
2023/05/04 10:01:27;;;;;;;1.90;1.70;;;21.10;99.90;;;;;;5028344;28;20224;-64
2023/05/04 10:03:54;;;;;;;1.40;1.40;;;21.30;99.90;;;;;;5029602;28;20843;-64
2023/05/04 10:06:21;;;;;;;2.85;1.50;;;21.50;99.90;;;;;;5029872;28;20220;-64
2023/05/04 10:08:49;;;;;;;1.38;1.35;;;21.60;99.90;;;;;;5029700;28;20667;-64
2023/05/04 10:11:19;;;;;;;1.50;1.40;;;21.60;99.90;;;;;;5028758;28;20287;-64
2023/05/04 10:13:46;;;;;;;1.30;1.30;;;21.40;99.90;;;;;;5029654;28;20212;-65
2023/05/04 10:16:27;;;;;;;1.40;1.40;;;21.50;99.90;;;;;;5029910;28;20199;-65
2023/05/04 10:19:18;;;;;;;1.60;1.50;;;21.70;99.90;;;;;;5031393;28;20688;-64
2023/05/04 10:21:55;;;;;;;1.40;1.40;;;21.90;99.90;;;;;;5033566;28;20627;-64
2023/05/04 10:24:58;;;;;;;1.38;1.38;;;21.70;99.90;;;;;;5033620;28;20718;-65
2023/05/04 10:27:45;;;;;;;1.10;1.10;;;21.80;99.90;;;;;;5029261;28;20280;-63
2023/05/04 10:30:14;;;;;;;1.30;1.20;;;22.00;99.90;;;;;;5034276;28;20228;-64
2023/05/04 10:32:42;;;;;;;1.20;1.20;;;22.20;99.90;;;;;;5034531;28;20208;-64
2023/05/04 10:35:10;;;;;;;1.25;1.15;;;22.30;99.90;;;;;;5034752;28;20216;-64
2023/05/04 10:37:38;;;;;;;1.30;1.25;;;22.30;99.90;;;;;;5034663;28;20232;-63
2023/05/04 10:40:06;;;;;;;1.30;1.30;;;22.50;99.90;;;;;;5033491;28;20229;-65
2023/05/04 10:42:42;;;;;;;1.40;1.40;;;22.80;99.90;;;;;;5034425;28;20251;-63
2023/05/04 10:45:11;;;;;;;1.25;1.20;;;22.80;99.90;;;;;;5034069;28;20243;-63
2023/05/04 10:47:39;;;;;;;1.30;1.20;;;22.90;99.90;;;;;;5034109;28;20663;-63
2023/05/04 10:50:08;;;;;;;1.42;1.33;;;23.00;99.90;;;;;;5032033;28;20225;-63
2023/05/04 10:52:46;;;;;;;1.20;1.20;;;23.20;99.90;;;;;;5032885;28;20227;-63
2023/05/04 10:55:14;;;;;;;3.08;1.80;;;23.20;99.90;;;;;;5032887;28;20216;-63
2023/05/04 10:57:52;;;;;;;1.20;1.20;;;23.20;99.90;;;;;;5033117;28;20220;-63
2023/05/04 11:00:19;;;;;;;1.20;1.20;;;23.20;99.90;;;;;;5032312;28;20228;-63
2023/05/04 11:02:46;;;;;;;1.00;1.00;;;23.10;99.90;;;;;;5032921;28;20208;-63
2023/05/04 11:05:17;;;;;;;0.98;0.98;;;23.30;99.90;;;;;;5032548;28;20215;-62
2023/05/04 11:07:44;;;;;;;1.27;1.20;;;23.50;99.90;;;;;;5033126;28;20205;-63
2023/05/04 11:10:21;;;;;;;1.00;1.00;;;23.60;99.90;;;;;;5031110;28;20228;-63
2023/05/04 11:12:49;;;;;;;1.00;1.00;;;23.60;99.90;;;;;;5032653;28;20203;-63
2023/05/04 11:15:18;;;;;;;1.20;1.20;;;23.60;99.90;;;;;;5032513;28;20691;-64
2023/05/04 11:17:46;;;;;;;1.20;1.20;;;23.50;99.90;;;;;;5033569;28;20232;-64
2023/05/04 11:20:20;;;;;;;1.00;1.00;;;23.50;99.90;;;;;;5033002;28;20236;-65
2023/05/04 11:22:47;;;;;;;1.02;1.02;;;23.70;99.90;;;;;;5034153;28;20266;-64
2023/05/04 11:25:15;;;;;;;0.90;0.90;;;24.00;99.90;;;;;;5033049;28;20219;-64
2023/05/04 11:27:43;;;;;;;1.00;1.00;;;24.20;99.90;;;;;;5034826;28;20273;-64
2023/05/04 11:30:12;;;;;;;1.67;1.30;;;24.30;99.90;;;;;;5031583;28;20286;-65
2023/05/04 11:32:41;;;;;;;1.10;1.10;;;24.40;99.90;;;;;;5033681;28;20215;-65
2023/05/04 11:35:10;;;;;;;1.20;1.20;;;24.40;99.90;;;;;;5032910;28;20262;-64
2023/05/04 11:37:41;;;;;;;1.00;1.00;;;24.30;99.90;;;;;;5036160;28;20254;-63
2023/05/04 11:40:12;;;;;;;0.95;0.95;;;24.30;99.90;;;;;;5033270;28;20224;-63
2023/05/04 11:42:40;;;;;;;0.95;0.95;;;24.40;99.90;;;;;;5032669;28;20243;-64
2023/05/04 11:45:10;;;;;;;1.05;1.05;;;24.50;99.90;;;;;;5032289;28;20204;-63
2023/05/04 11:47:39;;;;;;;1.45;1.00;;;24.60;99.90;;;;;;5031983;28;20204;-63
2023/05/04 11:50:09;;;;;;;1.00;1.00;;;24.70;99.90;;;;;;5031315;28;20239;-65
2023/05/04 11:52:39;;;;;;;0.90;0.90;;;24.80;99.90;;;;;;5031889;28;20295;-63
2023/05/04 11:55:08;;;;;;;1.00;1.00;;;24.70;99.90;;;;;;5033081;28;20208;-65
2023/05/04 11:57:36;;;;;;;1.25;1.15;;;24.70;99.90;;;;;;5033186;28;20212;-64
2023/05/04 12:00:05;;;;;;;1.02;1.02;;;24.70;99.90;;;;;;5031919;28;20255;-65
2023/05/04 12:02:31;;;;;;;0.90;0.90;;;24.60;99.90;;;;;;5035613;28;20212;-64
2023/05/04 12:05:00;;;;;;;0.85;0.85;;;24.80;99.90;;;;;;5033881;28;20205;-63
2023/05/04 12:07:27;;;;;;;0.80;0.80;;;24.90;99.90;;;;;;5031873;28;20211;-64
2023/05/04 12:09:54;;;;;;;1.00;1.00;;;25.00;99.90;;;;;;5031183;28;20227;-65
2023/05/04 12:12:21;;;;;;;1.00;1.00;;;25.00;99.90;;;;;;5031355;28;20209;-64
2023/05/04 12:14:50;;;;;;;1.10;1.10;;;25.00;99.90;;;;;;5031277;28;20205;-64
2023/05/04 12:17:18;;;;;;;2.67;1.30;;;25.20;99.90;;;;;;5031456;28;20315;-64
2023/05/04 12:19:49;;;;;;;0.80;0.80;;;25.30;99.90;;;;;;5030566;28;20497;-64
2023/05/04 12:22:18;;;;;;;0.95;0.95;;;25.30;99.90;;;;;;5031447;28;20302;-64
2023/05/04 12:24:45;;;;;;;0.90;0.90;;;25.10;99.90;;;;;;5031194;28;20219;-64
2023/05/04 12:27:14;;;;;;;1.35;1.25;;;25.00;99.90;;;;;;5031161;28;20324;-64
2023/05/04 12:29:41;;;;;;;1.00;0.98;;;25.00;99.90;;;;;;5030472;28;20312;-65
2023/05/04 12:32:08;;;;;;;0.88;0.88;;;25.00;99.90;;;;;;5031494;28;20250;-64
2023/05/04 12:34:37;;;;;;;1.67;1.00;;;25.20;99.90;;;;;;5030997;28;20205;-62
2023/05/04 12:37:04;;;;;;;1.13;1.02;;;25.40;99.90;;;;;;5030535;28;20204;-63
2023/05/04 12:39:33;;;;;;;0.88;0.88;;;25.50;99.90;;;;;;5038229;28;20303;-63
2023/05/04 12:42:00;;;;;;;0.90;0.90;;;25.50;99.90;;;;;;5048243;28;20204;-65
2023/05/04 12:44:27;;;;;;;0.98;0.98;;;25.50;99.90;;;;;;5050232;28;20611;-63
2023/05/04 12:46:54;;;;;;;1.00;1.00;;;25.50;99.90;;;;;;5051142;28;20265;-63
2023/05/04 12:49:21;;;;;;;0.98;0.98;;;25.60;99.90;;;;;;5050095;28;20200;-63
2023/05/04 12:51:49;;;;;;;1.00;1.00;;;25.70;99.90;;;;;;5051094;28;20212;-63